createdAt,value
2023-04-25T00:02:00.754Z,8.59
2023-04-25T00:04:31.042Z,8.46
2023-04-25T00:06:58.969Z,8.38
2023-04-25T00:09:29.250Z,8.40
2023-04-25T00:11:56.935Z,8.32
2023-04-25T00:14:24.546Z,8.36
2023-04-25T00:16:52.762Z,8.49
2023-04-25T00:19:20.376Z,8.75
2023-04-25T00:21:48.078Z,8.77
2023-04-25T00:24:16.318Z,8.96
2023-04-25T00:26:45.410Z,8.77
2023-04-25T00:29:13.231Z,9.15
2023-04-25T00:31:41.098Z,9.15
2023-04-25T00:34:09.257Z,9.10
2023-04-25T00:36:37.248Z,8.84
2023-04-25T00:39:05.548Z,9.24
2023-04-25T00:41:33.181Z,8.96
2023-04-25T00:44:04.229Z,8.86
2023-04-25T00:46:32.962Z,9.05
2023-04-25T00:49:00.609Z,9.57
2023-04-25T00:51:28.603Z,9.40
2023-04-25T00:53:56.514Z,8.95
2023-04-25T00:56:24.280Z,9.09
2023-04-25T00:58:55.216Z,9.30
2023-04-25T01:01:24.550Z,9.10
2023-04-25T01:03:52.656Z,9.35
2023-04-25T01:06:21.091Z,9.36
2023-04-25T01:08:49.798Z,9.31
2023-04-25T01:11:17.484Z,9.31
2023-04-25T01:13:45.568Z,9.31
2023-04-25T01:16:13.307Z,9.03
2023-04-25T01:18:43.311Z,8.53
2023-04-25T01:21:14.014Z,8.67
2023-04-25T01:23:42.748Z,9.18
2023-04-25T01:26:12.203Z,8.97
2023-04-25T01:28:42.135Z,8.67
2023-04-25T01:31:10.484Z,9.07
2023-04-25T01:33:39.782Z,8.96
2023-04-25T01:36:08.353Z,9.05
2023-04-25T01:38:37.825Z,9.07
2023-04-25T01:41:05.845Z,8.88
2023-04-25T01:43:33.496Z,8.40
2023-04-25T01:46:01.796Z,8.42
2023-04-25T01:48:29.514Z,8.31
2023-04-25T01:50:57.182Z,8.31
2023-04-25T01:53:25.814Z,8.24
2023-04-25T01:55:54.852Z,8.24
2023-04-25T01:58:22.548Z,8.38
2023-04-25T02:00:51.072Z,8.32
2023-04-25T02:03:19.007Z,8.46
2023-04-25T02:05:46.779Z,8.45
2023-04-25T02:08:15.525Z,8.47
2023-04-25T02:10:43.381Z,8.42
2023-04-25T02:13:12.474Z,8.25
2023-04-25T02:15:40.230Z,8.39
2023-04-25T02:18:08.505Z,8.31
2023-04-25T02:20:37.215Z,8.47
2023-04-25T02:23:05.037Z,8.52
2023-04-25T02:25:32.753Z,8.49
2023-04-25T02:28:00.420Z,8.37
2023-04-25T02:30:29.556Z,8.49
2023-04-25T02:32:57.693Z,8.48
2023-04-25T02:35:25.437Z,8.35
2023-04-25T02:37:53.153Z,8.25
2023-04-25T02:40:21.015Z,8.37
2023-04-25T02:42:48.717Z,8.17
2023-04-25T02:45:16.526Z,8.23
2023-04-25T02:47:45.555Z,8.29
2023-04-25T02:50:13.226Z,8.25
2023-04-25T02:52:41.092Z,8.19
2023-04-25T02:55:09.554Z,8.21
2023-04-25T02:57:37.250Z,8.18
2023-04-25T03:00:06.876Z,8.03
2023-04-25T03:02:34.769Z,8.02
2023-04-25T03:05:04.353Z,8.24
2023-04-25T03:07:32.139Z,8.30
2023-04-25T03:09:59.905Z,8.31
2023-04-25T03:12:27.585Z,8.21
2023-04-25T03:14:55.249Z,8.23
2023-04-25T03:17:23.131Z,8.30
2023-04-25T03:19:50.839Z,8.15
2023-04-25T03:22:19.880Z,8.14
2023-04-25T03:24:47.963Z,8.26
2023-04-25T03:27:15.934Z,8.17
2023-04-25T03:29:43.714Z,8.16
2023-04-25T03:32:11.516Z,8.21
2023-04-25T03:34:39.206Z,8.05
2023-04-25T03:37:06.905Z,8.01
2023-04-25T03:39:36.038Z,7.92
2023-04-25T03:42:03.912Z,7.88
2023-04-25T03:44:31.669Z,7.85
2023-04-25T03:46:59.691Z,7.84
2023-04-25T03:49:27.421Z,7.82
2023-04-25T03:51:55.019Z,7.81
2023-04-25T03:54:22.729Z,7.85
2023-04-25T03:56:51.833Z,7.89
2023-04-25T03:59:19.512Z,7.86
2023-04-25T04:01:47.252Z,7.85
2023-04-25T04:04:15.382Z,7.81
2023-04-25T04:06:43.326Z,7.85
2023-04-25T04:09:12.301Z,7.77
2023-04-25T04:11:40.587Z,7.87
2023-04-25T04:14:11.044Z,7.88
2023-04-25T04:16:38.725Z,8.05
2023-04-25T04:19:06.622Z,8.08
2023-04-25T04:21:34.442Z,8.00
2023-04-25T04:24:02.260Z,8.15
2023-04-25T04:26:30.384Z,8.06
2023-04-25T04:29:00.213Z,7.93
2023-04-25T04:31:29.450Z,7.96
2023-04-25T04:33:57.509Z,7.92
2023-04-25T04:36:27.078Z,7.94
2023-04-25T04:38:54.972Z,7.84
2023-04-25T04:41:22.927Z,7.86
2023-04-25T04:43:50.774Z,7.81
2023-04-25T04:46:19.471Z,7.88
2023-04-25T04:48:48.609Z,7.91
2023-04-25T04:51:16.294Z,8.01
2023-04-25T04:53:43.987Z,7.97
2023-04-25T04:56:11.590Z,8.00
2023-04-25T04:58:39.197Z,7.90
2023-04-25T05:01:07.229Z,8.02
2023-04-25T05:03:35.116Z,8.04
2023-04-25T05:06:04.466Z,7.97
2023-04-25T05:08:32.001Z,8.00
2023-04-25T05:10:59.566Z,7.98
2023-04-25T05:13:27.181Z,7.99
2023-04-25T05:15:54.830Z,7.96
2023-04-25T05:18:23.783Z,8.02
2023-04-25T05:20:51.549Z,8.13
2023-04-25T05:23:20.558Z,8.12
2023-04-25T05:25:52.152Z,8.19
2023-04-25T05:28:19.793Z,8.48
2023-04-25T05:30:47.430Z,8.40
2023-04-25T05:33:15.674Z,8.41
2023-04-25T05:35:43.738Z,8.35
2023-04-25T05:38:11.585Z,8.57
2023-04-25T05:40:40.631Z,8.54
2023-04-25T05:43:08.433Z,8.44
2023-04-25T05:45:36.115Z,8.57
2023-04-25T05:48:04.008Z,8.54
2023-04-25T05:50:31.856Z,8.64
2023-04-25T05:52:59.538Z,8.47
2023-04-25T05:55:27.202Z,8.58
2023-04-25T05:57:56.266Z,8.61
2023-04-25T06:00:24.664Z,8.51
2023-04-25T06:02:52.454Z,8.47
2023-04-25T06:05:20.535Z,8.47
2023-04-25T06:07:48.336Z,8.61
2023-04-25T06:10:16.279Z,8.74
2023-04-25T06:12:44.093Z,8.67
2023-04-25T06:15:24.340Z,9.07
2023-04-25T06:17:56.553Z,9.29
2023-04-25T06:20:25.494Z,9.34
2023-04-25T06:22:53.727Z,9.56
2023-04-25T06:25:21.996Z,9.42
2023-04-25T06:27:51.566Z,9.19
2023-04-25T06:30:23.449Z,9.23
2023-04-25T06:32:51.252Z,9.42
2023-04-25T06:35:19.111Z,9.29
2023-04-25T06:37:46.865Z,9.10
2023-04-25T06:40:14.893Z,9.34
2023-04-25T06:42:42.641Z,9.16
2023-04-25T06:45:11.507Z,9.15
2023-04-25T06:47:40.735Z,9.30
2023-04-25T06:50:09.432Z,9.13
2023-04-25T06:52:37.169Z,9.22
2023-04-25T06:55:06.424Z,9.15
2023-04-25T06:57:34.134Z,9.04
2023-04-25T07:00:02.420Z,8.74
2023-04-25T07:02:30.606Z,8.48
2023-04-25T07:05:00.884Z,8.82
2023-04-25T07:07:28.569Z,8.58
2023-04-25T07:09:56.188Z,8.34
2023-04-25T07:12:24.233Z,7.93
2023-04-25T07:14:51.908Z,8.01
2023-04-25T07:17:19.599Z,8.03
2023-04-25T07:19:47.209Z,7.96
2023-04-25T07:22:16.279Z,7.97
2023-04-25T07:24:43.940Z,7.92
2023-04-25T07:27:11.578Z,8.02
2023-04-25T07:29:39.185Z,7.67
2023-04-25T07:32:07.095Z,7.96
2023-04-25T07:34:38.199Z,7.84
2023-04-25T07:37:06.140Z,8.20
2023-04-25T07:39:36.070Z,8.35
2023-04-25T07:42:04.777Z,8.41
2023-04-25T07:44:32.445Z,7.88
2023-04-25T07:47:03.047Z,8.15
2023-04-25T07:49:31.944Z,8.00
2023-04-25T07:52:00.015Z,8.22
2023-04-25T07:54:27.702Z,8.68
2023-04-25T07:56:56.882Z,8.27
2023-04-25T07:59:24.554Z,8.63
2023-04-25T08:01:52.351Z,8.92
2023-04-25T08:04:20.276Z,9.00
2023-04-25T08:06:48.815Z,9.09
2023-04-25T08:09:16.916Z,9.04
2023-04-25T08:11:44.895Z,8.59
2023-04-25T08:14:14.671Z,9.00
2023-04-25T08:16:44.298Z,9.19
2023-04-25T08:19:12.581Z,9.04
2023-04-25T08:21:40.274Z,8.90
2023-04-25T08:24:08.674Z,8.97
2023-04-25T08:26:38.271Z,8.80
2023-04-25T08:29:06.505Z,9.06
2023-04-25T08:31:35.782Z,9.10
2023-04-25T08:34:03.563Z,9.12
2023-04-25T08:36:39.139Z,8.70
2023-04-25T08:39:08.351Z,9.25
2023-04-25T08:41:38.194Z,9.46
2023-04-25T08:44:07.400Z,9.71
2023-04-25T08:46:36.877Z,9.79
2023-04-25T08:49:04.561Z,9.61
2023-04-25T08:51:34.564Z,9.46
2023-04-25T08:54:28.088Z,9.61
2023-04-25T08:56:59.532Z,10.00
2023-04-25T08:59:27.929Z,9.71
2023-04-25T09:01:57.278Z,9.98
2023-04-25T09:04:25.091Z,10.42
2023-04-25T09:06:53.072Z,10.13
2023-04-25T09:09:20.842Z,10.42
2023-04-25T09:11:48.605Z,10.05
2023-04-25T09:14:18.404Z,9.63
2023-04-25T09:17:14.880Z,9.43
2023-04-25T09:19:42.726Z,9.52
2023-04-25T09:22:10.803Z,9.25
2023-04-25T09:24:40.344Z,9.47
2023-04-25T09:27:08.902Z,9.77
2023-04-25T09:29:38.916Z,9.99
2023-04-25T09:32:16.780Z,10.49
2023-04-25T09:34:49.075Z,10.33
2023-04-25T09:37:20.507Z,9.99
2023-04-25T09:39:49.338Z,9.85
2023-04-25T09:42:18.444Z,9.95
2023-04-25T09:44:47.223Z,9.71
2023-04-25T09:47:19.079Z,9.87
2023-04-25T09:49:46.860Z,10.43
2023-04-25T09:52:19.221Z,10.27
2023-04-25T09:54:47.719Z,10.45
2023-04-25T09:57:16.948Z,10.31
2023-04-25T09:59:49.265Z,10.02
2023-04-25T10:02:21.630Z,10.71
2023-04-25T10:04:53.834Z,10.38
2023-04-25T10:07:22.764Z,10.45
2023-04-25T10:09:51.834Z,10.51
2023-04-25T10:12:20.032Z,10.42
2023-04-25T10:14:48.682Z,10.64
2023-04-25T10:17:19.041Z,10.93
2023-04-25T10:19:47.069Z,11.03
2023-04-25T10:22:19.497Z,11.13
2023-04-25T10:24:48.563Z,11.44
2023-04-25T10:27:17.080Z,11.09
2023-04-25T10:29:45.404Z,10.58
2023-04-25T10:32:13.285Z,10.25
2023-04-25T10:34:47.989Z,10.57
2023-04-25T10:37:16.205Z,10.96
2023-04-25T10:39:44.781Z,11.88
2023-04-25T10:42:13.735Z,12.71
2023-04-25T10:44:41.484Z,13.37
2023-04-25T10:47:10.846Z,14.40
2023-04-25T10:49:40.252Z,13.24
2023-04-25T10:52:17.436Z,12.10
2023-04-25T10:54:48.887Z,11.48
2023-04-25T10:57:32.945Z,11.52
2023-04-25T11:00:02.206Z,11.64
2023-04-25T11:02:30.522Z,11.66
2023-04-25T11:04:58.808Z,10.88
2023-04-25T11:07:52.827Z,10.49
2023-04-25T11:10:28.296Z,10.47
2023-04-25T11:12:56.248Z,10.50
2023-04-25T11:15:25.106Z,10.92
2023-04-25T11:17:53.665Z,10.77
2023-04-25T11:20:21.612Z,10.63
2023-04-25T11:22:52.707Z,11.28
2023-04-25T11:25:21.076Z,10.73
2023-04-25T11:27:53.222Z,10.64
2023-04-25T11:30:22.522Z,10.92
2023-04-25T11:32:50.194Z,11.17
2023-04-25T11:35:18.581Z,11.12
2023-04-25T11:37:46.637Z,11.78
2023-04-25T11:40:16.001Z,12.35
2023-04-25T11:42:46.899Z,12.76
2023-04-25T11:45:15.348Z,12.52
2023-04-25T11:47:43.136Z,11.97
2023-04-25T11:50:12.166Z,11.88
2023-04-25T11:52:40.963Z,12.07
2023-04-25T11:55:11.567Z,11.82
2023-04-25T11:57:42.338Z,11.80
2023-04-25T12:00:15.842Z,12.29
2023-04-25T12:02:47.568Z,12.62
2023-04-25T12:05:31.117Z,12.81
2023-04-25T12:07:59.599Z,12.91
2023-04-25T12:10:28.326Z,13.13
2023-04-25T12:12:57.490Z,12.63
2023-04-25T12:15:27.296Z,12.27
2023-04-25T12:17:56.391Z,12.16
2023-04-25T12:20:27.280Z,11.45
2023-04-25T12:22:55.695Z,11.93
2023-04-25T12:25:36.796Z,12.07
2023-04-25T12:28:16.265Z,12.07
2023-04-25T12:31:00.417Z,11.46
2023-04-25T12:33:30.259Z,12.29
2023-04-25T12:35:59.189Z,12.90
2023-04-25T12:38:27.922Z,12.88
2023-04-25T12:40:56.157Z,13.28
2023-04-25T12:43:25.598Z,13.04
2023-04-25T12:45:54.640Z,12.64
2023-04-25T12:48:22.841Z,12.91
2023-04-25T12:50:51.435Z,12.51
2023-04-25T12:53:19.862Z,12.64
2023-04-25T12:55:48.078Z,12.34
2023-04-25T12:58:15.971Z,12.65
2023-04-25T13:00:45.179Z,11.92
2023-04-25T13:03:13.437Z,12.51
2023-04-25T13:05:42.076Z,12.33
2023-04-25T13:08:10.048Z,12.28
2023-04-25T13:10:39.478Z,12.78
2023-04-25T13:13:07.386Z,12.86
2023-04-25T13:15:35.227Z,12.66
2023-04-25T13:18:05.448Z,12.20
2023-04-25T13:20:33.406Z,12.05
2023-04-25T13:23:02.700Z,11.83
2023-04-25T13:25:31.134Z,12.02
2023-04-25T13:27:58.912Z,11.28
2023-04-25T13:30:27.141Z,11.77
2023-04-25T13:32:57.753Z,11.68
2023-04-25T13:35:26.999Z,11.22
2023-04-25T13:37:54.649Z,11.39
2023-04-25T13:40:24.673Z,11.65
2023-04-25T13:42:53.298Z,12.14
2023-04-25T13:45:21.427Z,12.01
2023-04-25T13:47:49.361Z,12.07
2023-04-25T13:50:17.187Z,11.76
2023-04-25T13:52:46.520Z,11.38
2023-04-25T13:55:14.363Z,11.70
2023-04-25T13:57:42.266Z,11.39
2023-04-25T14:00:10.922Z,11.55
2023-04-25T14:02:39.001Z,11.71
2023-04-25T14:05:07.859Z,11.49
2023-04-25T14:07:36.981Z,11.55
2023-04-25T14:10:08.014Z,11.46
2023-04-25T14:12:36.061Z,11.78
2023-04-25T14:15:04.675Z,11.04
2023-04-25T14:17:32.471Z,11.47
2023-04-25T14:20:00.455Z,11.40
2023-04-25T14:22:28.249Z,11.27
2023-04-25T14:24:55.856Z,11.30
2023-04-25T14:27:25.405Z,11.12
2023-04-25T14:29:54.325Z,11.74
2023-04-25T14:32:22.209Z,11.68
2023-04-25T14:34:49.932Z,11.61
2023-04-25T14:37:17.670Z,12.07
2023-04-25T14:39:46.419Z,11.96
2023-04-25T14:42:14.311Z,12.21
2023-04-25T14:44:43.493Z,12.11
2023-04-25T14:47:11.286Z,12.07
2023-04-25T14:49:39.224Z,11.93
2023-04-25T14:52:07.413Z,12.02
2023-04-25T14:54:35.470Z,12.05
2023-04-25T14:57:03.168Z,12.07
2023-04-25T14:59:30.884Z,12.24
2023-04-25T15:02:00.026Z,12.27
2023-04-25T15:04:27.956Z,11.95
2023-04-25T15:06:56.176Z,11.28
2023-04-25T15:09:24.914Z,11.66
2023-04-25T15:11:52.924Z,12.03
2023-04-25T15:14:20.624Z,12.16
2023-04-25T15:16:48.298Z,11.64
2023-04-25T15:19:17.505Z,11.90
2023-04-25T15:21:45.228Z,12.11
2023-04-25T15:24:13.036Z,12.29
2023-04-25T15:26:41.188Z,11.97
2023-04-25T15:29:08.905Z,11.96
2023-04-25T15:31:36.721Z,11.83
2023-04-25T15:34:04.462Z,11.87
2023-04-25T15:36:33.566Z,11.47
2023-04-25T15:39:01.419Z,11.60
2023-04-25T15:41:28.994Z,11.62
2023-04-25T15:43:56.653Z,11.65
2023-04-25T15:46:24.422Z,11.24
2023-04-25T15:48:52.069Z,11.06
2023-04-25T15:51:19.667Z,11.57
2023-04-25T15:53:48.820Z,11.81
2023-04-25T15:56:16.793Z,12.07
2023-04-25T15:58:44.392Z,11.94
2023-04-25T16:01:12.680Z,11.54
2023-04-25T16:03:40.908Z,11.19
2023-04-25T16:06:09.505Z,11.17
2023-04-25T16:08:37.257Z,11.20
2023-04-25T16:11:06.806Z,11.44
2023-04-25T16:13:35.325Z,11.45
2023-04-25T16:16:03.110Z,11.25
2023-04-25T16:18:30.999Z,11.23
2023-04-25T16:20:58.662Z,11.48
2023-04-25T16:23:27.485Z,11.09
2023-04-25T16:25:55.897Z,11.25
2023-04-25T16:28:25.250Z,11.18
2023-04-25T16:30:52.953Z,11.22
2023-04-25T16:33:20.973Z,11.11
2023-04-25T16:35:50.141Z,11.17
2023-04-25T16:38:18.172Z,11.29
2023-04-25T16:40:45.963Z,11.57
2023-04-25T16:43:13.639Z,11.22
2023-04-25T16:45:42.679Z,11.26
2023-04-25T16:48:10.358Z,11.02
2023-04-25T16:50:38.079Z,11.12
2023-04-25T16:53:05.708Z,11.14
2023-04-25T16:55:33.393Z,10.85
2023-04-25T16:58:01.165Z,10.94
2023-04-25T17:00:28.938Z,10.91
2023-04-25T17:02:58.326Z,10.99
2023-04-25T17:05:26.279Z,10.92
2023-04-25T17:07:53.945Z,11.16
2023-04-25T17:10:21.878Z,11.03
2023-04-25T17:12:49.713Z,11.18
2023-04-25T17:15:17.461Z,11.11
2023-04-25T17:17:45.184Z,11.03
2023-04-25T17:20:14.940Z,10.70
2023-04-25T17:22:42.790Z,10.77
2023-04-25T17:25:11.390Z,10.86
2023-04-25T17:27:39.236Z,10.76
2023-04-25T17:30:08.624Z,10.84
2023-04-25T17:32:36.678Z,10.83
2023-04-25T17:35:05.303Z,10.99
2023-04-25T17:37:34.380Z,11.05
2023-04-25T17:40:02.700Z,11.07
2023-04-25T17:42:30.756Z,10.77
2023-04-25T17:44:58.525Z,10.77
2023-04-25T17:47:26.393Z,10.45
2023-04-25T17:49:54.813Z,10.43
2023-04-25T17:52:22.789Z,10.50
2023-04-25T17:54:51.965Z,10.34
2023-04-25T17:57:21.450Z,10.31
2023-04-25T17:59:49.537Z,10.32
2023-04-25T18:02:17.692Z,10.43
2023-04-25T18:04:46.348Z,10.35
2023-04-25T18:07:14.309Z,10.31
2023-04-25T18:09:42.269Z,10.40
2023-04-25T18:12:11.764Z,10.20
2023-04-25T18:14:39.852Z,10.30
2023-04-25T18:17:09.139Z,10.31
2023-04-25T18:19:37.212Z,10.24
2023-04-25T18:22:05.184Z,10.19
2023-04-25T18:24:33.565Z,10.11
2023-04-25T18:27:06.010Z,10.13
2023-04-25T18:29:37.434Z,10.23
2023-04-25T18:32:06.597Z,10.24
2023-04-25T18:34:35.289Z,10.07
2023-04-25T18:37:03.292Z,10.04
2023-04-25T18:39:31.244Z,10.09
2023-04-25T18:42:04.648Z,10.05
2023-04-25T18:44:39.593Z,9.94
2023-04-25T18:47:07.888Z,9.66
2023-04-25T18:49:37.522Z,9.58
2023-04-25T18:52:05.578Z,9.68
2023-04-25T18:54:33.452Z,9.63
2023-04-25T18:57:01.533Z,9.52
2023-04-25T18:59:29.479Z,9.52
2023-04-25T19:02:00.607Z,9.48
2023-04-25T19:04:29.272Z,9.47
2023-04-25T19:06:57.177Z,9.31
2023-04-25T19:09:25.300Z,9.30
2023-04-25T19:11:53.258Z,9.26
2023-04-25T19:14:21.225Z,9.38
2023-04-25T19:16:49.209Z,9.40
2023-04-25T19:19:18.506Z,9.29
2023-04-25T19:21:46.582Z,9.19
2023-04-25T19:24:14.648Z,9.14
2023-04-25T19:26:42.426Z,8.95
2023-04-25T19:29:13.396Z,9.04
2023-04-25T19:31:44.032Z,8.95
2023-04-25T19:34:13.084Z,8.89
2023-04-25T19:36:44.131Z,8.90
2023-04-25T19:39:12.018Z,9.00
2023-04-25T19:41:40.324Z,8.97
2023-04-25T19:44:09.477Z,9.06
2023-04-25T19:46:38.290Z,8.93
2023-04-25T19:49:07.678Z,8.70
2023-04-25T19:51:36.593Z,8.69
2023-04-25T19:54:06.091Z,8.75
2023-04-25T19:56:33.993Z,8.76
2023-04-25T19:59:01.842Z,8.86
2023-04-25T20:01:30.402Z,8.86
2023-04-25T20:03:58.394Z,8.91
2023-04-25T20:06:27.122Z,8.92
2023-04-25T20:08:54.965Z,8.82
2023-04-25T20:11:24.185Z,8.75
2023-04-25T20:13:52.243Z,8.78
2023-04-25T20:16:21.928Z,8.71
2023-04-25T20:18:50.843Z,8.84
2023-04-25T20:21:18.913Z,8.77
2023-04-25T20:23:47.328Z,8.76
2023-04-25T20:26:15.200Z,8.46
2023-04-25T20:28:44.383Z,8.52
2023-04-25T20:31:12.424Z,8.53
2023-04-25T20:33:40.303Z,8.49
2023-04-25T20:36:08.091Z,8.33
2023-04-25T20:38:35.738Z,8.41
2023-04-25T20:41:03.772Z,8.50
2023-04-25T20:43:32.337Z,8.47
2023-04-25T20:46:01.636Z,8.41
2023-04-25T20:48:29.411Z,8.43
2023-04-25T20:50:58.559Z,8.24
2023-04-25T20:53:26.279Z,8.39
2023-04-25T20:55:54.056Z,8.38
2023-04-25T20:58:21.816Z,8.26
2023-04-25T21:00:50.685Z,8.18
2023-04-25T21:03:20.721Z,8.04
2023-04-25T21:05:48.628Z,7.97
2023-04-25T21:08:16.704Z,7.96
2023-04-25T21:10:44.415Z,7.84
2023-04-25T21:13:12.772Z,8.02
2023-04-25T21:15:40.512Z,7.94
2023-04-25T21:18:08.337Z,7.93
2023-04-25T21:20:37.684Z,7.83
2023-04-25T21:23:05.420Z,7.76
2023-04-25T21:25:33.155Z,7.72
2023-04-25T21:28:02.457Z,7.71
2023-04-25T21:30:30.803Z,7.62
2023-04-25T21:32:58.577Z,7.49
2023-04-25T21:35:26.499Z,7.36
2023-04-25T21:37:56.110Z,7.24
2023-04-25T21:40:24.114Z,7.16
2023-04-25T21:42:53.408Z,7.13
2023-04-25T21:45:22.132Z,7.07
2023-04-25T21:47:50.802Z,6.96
2023-04-25T21:50:19.565Z,6.88
2023-04-25T21:52:48.198Z,6.88
2023-04-25T21:55:17.576Z,6.87
2023-04-25T21:57:46.317Z,6.80
2023-04-25T22:00:21.778Z,6.76
2023-04-25T22:02:49.729Z,6.69
2023-04-25T22:05:20.208Z,6.57
2023-04-25T22:07:48.240Z,6.59
2023-04-25T22:10:17.829Z,6.61
2023-04-25T22:12:46.769Z,6.48
2023-04-25T22:15:14.608Z,6.51
2023-04-25T22:17:42.407Z,6.36
2023-04-25T22:20:13.995Z,6.26
2023-04-25T22:22:41.934Z,6.26
2023-04-25T22:25:11.919Z,6.25
2023-04-25T22:27:42.896Z,6.21
2023-04-25T22:30:12.950Z,6.14
2023-04-25T22:32:41.507Z,6.22
2023-04-25T22:35:10.467Z,6.15
2023-04-25T22:37:38.677Z,5.92
2023-04-25T22:40:08.920Z,5.91
2023-04-25T22:42:43.187Z,5.62
2023-04-25T22:45:12.224Z,5.62
2023-04-25T22:47:40.863Z,5.59
2023-04-25T22:50:13.154Z,5.45
2023-04-25T22:52:42.604Z,5.41
2023-04-25T22:55:12.477Z,5.38
2023-04-25T22:57:42.415Z,5.34
2023-04-25T23:00:16.071Z,5.20
2023-04-25T23:02:45.724Z,5.20
2023-04-25T23:05:14.205Z,5.09
2023-04-25T23:07:43.633Z,5.05
2023-04-25T23:10:12.139Z,4.93
2023-04-25T23:12:41.261Z,4.84
2023-04-25T23:15:10.218Z,4.81
2023-04-25T23:17:38.187Z,4.86
2023-04-25T23:20:07.740Z,4.77
2023-04-25T23:22:36.061Z,4.67
2023-04-25T23:25:03.860Z,4.82
2023-04-25T23:27:31.519Z,4.79
2023-04-25T23:30:00.548Z,4.76
2023-04-25T23:32:28.465Z,4.65
2023-04-25T23:34:56.248Z,4.63
2023-04-25T23:37:24.019Z,4.38
2023-04-25T23:39:52.098Z,4.35
2023-04-25T23:42:20.313Z,4.21
2023-04-25T23:44:48.039Z,4.20
2023-04-25T23:47:18.920Z,4.15
2023-04-25T23:49:46.854Z,4.13
2023-04-25T23:52:14.520Z,4.12
2023-04-25T23:54:43.328Z,4.04
2023-04-25T23:57:12.219Z,4.09
2023-04-25T23:59:39.854Z,4.07
